Time;durP1;ratioP1;P1;durP2;ratioP2;P2;SDS_P1;SDS_P2;PMS_P1;PMS_P2;Temp;Humidity;BMP_temperature;BMP_pressure;BME280_temperature;BME280_humidity;BME280_pressure;Samples;Min_cycle;Max_cycle;Signal;HPM_P1;HPM_P2
2022/09/18 00:01:36;;;;;;;1.77;1.13;;;12.90;99.90;;;;;;5106060;27;20187;-66
2022/09/18 00:04:04;;;;;;;2.63;1.65;;;12.80;99.90;;;;;;5111168;27;20180;-65
2022/09/18 00:06:33;;;;;;;3.92;1.40;;;12.70;99.90;;;;;;5103870;28;20187;-65
2022/09/18 00:09:01;;;;;;;1.60;1.33;;;12.70;99.90;;;;;;5089529;28;20595;-65
2022/09/18 00:11:29;;;;;;;1.75;1.25;;;12.60;99.90;;;;;;5114143;28;20191;-65
2022/09/18 00:13:55;;;;;;;3.85;1.60;;;12.60;99.90;;;;;;5112251;28;20267;-65
2022/09/18 00:16:23;;;;;;;3.35;1.83;;;12.60;99.90;;;;;;5112943;28;20187;-65
2022/09/18 00:18:49;;;;;;;2.60;2.40;;;12.60;99.90;;;;;;5104579;28;20211;-65
2022/09/18 00:21:20;;;;;;;3.75;1.50;;;12.50;99.90;;;;;;5094079;28;20637;-66
2022/09/18 00:23:47;;;;;;;6.30;2.28;;;12.50;99.90;;;;;;5097344;28;20183;-65
2022/09/18 00:26:15;;;;;;;1.73;1.63;;;12.50;99.90;;;;;;5097814;28;20197;-65
2022/09/18 00:28:40;;;;;;;3.40;1.88;;;12.50;99.90;;;;;;5099813;28;20237;-65
2022/09/18 00:31:09;;;;;;;3.42;1.92;;;12.50;99.90;;;;;;5061580;28;20211;-65
2022/09/18 00:33:36;;;;;;;2.95;1.33;;;12.50;99.90;;;;;;5080854;28;20275;-65
2022/09/18 00:36:04;;;;;;;2.22;1.50;;;12.60;99.90;;;;;;5080104;28;20262;-65
2022/09/18 00:38:30;;;;;;;2.28;1.60;;;12.50;99.90;;;;;;5085737;28;20191;-65
2022/09/18 00:40:58;;;;;;;1.88;1.70;;;12.60;99.90;;;;;;5091991;28;20652;-65
2022/09/18 00:43:26;;;;;;;6.22;1.70;;;12.60;99.90;;;;;;5081142;28;20223;-65
2022/09/18 00:46:08;;;;;;;2.42;1.38;;;12.60;99.90;;;;;;5107509;28;20183;-65
2022/09/18 00:48:54;;;;;;;2.22;1.15;;;12.70;99.90;;;;;;5102982;28;20266;-65
2022/09/18 00:51:20;;;;;;;4.78;2.47;;;12.70;99.90;;;;;;5109966;28;20206;-65
2022/09/18 00:54:05;;;;;;;2.45;1.50;;;12.60;99.90;;;;;;5084934;28;20553;-66
2022/09/18 00:56:31;;;;;;;2.78;1.42;;;12.60;99.90;;;;;;5110351;28;20281;-65
2022/09/18 00:58:58;;;;;;;3.20;1.95;;;12.60;99.90;;;;;;5092539;28;20195;-65
2022/09/18 01:01:23;;;;;;;2.75;1.20;;;12.60;99.90;;;;;;5091786;28;20647;-65
2022/09/18 01:03:49;;;;;;;4.20;1.88;;;12.60;99.90;;;;;;5077438;28;20185;-65
2022/09/18 01:06:41;;;;;;;2.67;2.30;;;12.60;99.90;;;;;;5098466;28;20188;-65
2022/09/18 01:09:52;;;;;;;2.47;2.15;;;12.50;99.90;;;;;;5104191;28;20189;-65
2022/09/18 01:12:26;;;;;;;1.77;1.63;;;12.60;99.90;;;;;;5101374;28;20188;-65
2022/09/18 01:15:07;;;;;;;6.30;2.03;;;12.60;99.90;;;;;;5112323;28;20184;-65
2022/09/18 01:18:01;;;;;;;1.63;1.60;;;12.60;99.90;;;;;;5114569;27;20178;-65
2022/09/18 01:20:33;;;;;;;1.65;1.55;;;12.60;99.90;;;;;;5113965;28;20637;-65
2022/09/18 01:23:22;;;;;;;3.90;1.70;;;12.50;99.90;;;;;;5092214;28;20184;-65
2022/09/18 01:26:00;;;;;;;3.58;2.53;;;12.50;99.90;;;;;;5102745;28;20188;-65
2022/09/18 01:29:02;;;;;;;3.88;2.22;;;12.40;99.90;;;;;;5096953;27;20277;-65
2022/09/18 01:31:50;;;;;;;4.93;2.05;;;12.50;99.90;;;;;;5046676;28;20285;-65
2022/09/18 01:34:45;;;;;;;3.67;1.80;;;12.50;99.90;;;;;;5097081;27;20199;-65
2022/09/18 01:37:21;;;;;;;3.47;2.17;;;12.40;99.90;;;;;;5106781;27;20181;-65
2022/09/18 01:40:11;;;;;;;9.30;2.05;;;12.30;99.90;;;;;;5105484;27;20192;-65
2022/09/18 01:42:40;;;;;;;1.95;1.67;;;12.40;99.90;;;;;;5109377;27;20180;-65
2022/09/18 01:45:13;;;;;;;4.80;1.90;;;12.40;99.90;;;;;;5112504;28;20290;-65
2022/09/18 01:47:49;;;;;;;2.78;1.80;;;12.40;99.90;;;;;;5096966;28;20183;-65
2022/09/18 01:50:16;;;;;;;12.73;2.38;;;12.40;99.90;;;;;;5104755;27;20238;-64
2022/09/18 01:53:12;;;;;;;3.00;1.67;;;12.40;99.90;;;;;;5111426;28;20192;-66
2022/09/18 01:55:39;;;;;;;6.85;1.92;;;12.30;99.90;;;;;;5109093;28;20216;-66
2022/09/18 01:58:13;;;;;;;3.95;2.15;;;12.20;99.90;;;;;;5109558;27;20241;-66
2022/09/18 02:00:44;;;;;;;2.55;1.55;;;12.10;99.90;;;;;;5102277;27;20183;-66
2022/09/18 02:03:18;;;;;;;1.85;1.58;;;12.00;99.90;;;;;;5109351;28;20183;-66
2022/09/18 02:05:59;;;;;;;3.40;2.08;;;12.00;99.90;;;;;;5099600;28;20188;-66
2022/09/18 02:08:40;;;;;;;3.83;2.03;;;12.00;99.90;;;;;;5085733;28;20172;-66
2022/09/18 02:11:09;;;;;;;2.13;1.75;;;12.10;99.90;;;;;;5092729;28;20245;-66
2022/09/18 02:13:41;;;;;;;6.63;1.75;;;12.20;99.90;;;;;;5103141;28;20188;-65
2022/09/18 02:16:22;;;;;;;6.60;1.52;;;12.20;99.90;;;;;;5120705;27;20176;-65
2022/09/18 02:18:52;;;;;;;3.25;2.40;;;12.20;99.90;;;;;;5116322;27;20184;-66
2022/09/18 02:21:23;;;;;;;5.90;2.22;;;12.20;99.90;;;;;;5097931;27;20180;-66
2022/09/18 02:23:50;;;;;;;3.78;1.70;;;12.20;99.90;;;;;;5096727;28;20276;-66
2022/09/18 02:26:17;;;;;;;2.63;1.70;;;12.10;99.90;;;;;;5108192;28;20184;-66
2022/09/18 02:28:44;;;;;;;3.72;1.83;;;12.00;99.90;;;;;;5089437;28;20521;-66
2022/09/18 02:31:11;;;;;;;1.98;1.75;;;12.00;99.90;;;;;;5114301;28;20227;-66
2022/09/18 02:33:38;;;;;;;2.65;1.55;;;12.10;99.90;;;;;;5093456;28;20195;-66
2022/09/18 02:36:31;;;;;;;5.82;1.70;;;12.10;99.90;;;;;;5115007;27;20583;-66
2022/09/18 02:39:21;;;;;;;5.43;1.45;;;12.10;99.90;;;;;;5112485;28;20218;-66
2022/09/18 02:42:02;;;;;;;2.53;1.83;;;12.00;99.90;;;;;;5077015;28;20233;-66
2022/09/18 02:44:40;;;;;;;3.35;1.58;;;11.90;99.90;;;;;;5077549;28;20173;-66
2022/09/18 02:47:27;;;;;;;1.33;1.30;;;11.90;99.90;;;;;;5114334;27;20710;-66
2022/09/18 02:49:56;;;;;;;3.83;2.03;;;11.90;99.90;;;;;;5075790;28;20196;-66
2022/09/18 02:52:40;;;;;;;1.70;1.52;;;12.00;99.90;;;;;;5106989;27;20184;-66
2022/09/18 02:55:14;;;;;;;1.73;1.60;;;11.90;99.90;;;;;;5105754;27;20179;-65
2022/09/18 02:58:03;;;;;;;5.30;1.80;;;11.90;99.90;;;;;;5107626;27;20190;-66
2022/09/18 03:00:30;;;;;;;4.18;2.00;;;12.00;99.90;;;;;;5086490;28;20176;-66
2022/09/18 03:02:57;;;;;;;5.50;1.77;;;12.00;99.90;;;;;;5116900;27;20199;-66
2022/09/18 03:05:24;;;;;;;1.52;1.40;;;11.90;99.90;;;;;;5118936;27;20640;-66
2022/09/18 03:07:50;;;;;;;2.10;1.88;;;11.80;99.90;;;;;;5114457;27;20287;-66
2022/09/18 03:10:16;;;;;;;1.50;1.45;;;11.80;99.90;;;;;;5095065;28;20306;-66
2022/09/18 03:12:42;;;;;;;1.65;1.55;;;11.90;99.90;;;;;;5085249;28;20192;-65
2022/09/18 03:15:08;;;;;;;2.33;1.55;;;11.80;99.90;;;;;;5114006;28;20187;-66
2022/09/18 03:17:34;;;;;;;4.18;2.10;;;11.80;99.90;;;;;;5093878;28;20185;-65
2022/09/18 03:19:59;;;;;;;2.78;1.75;;;11.80;99.90;;;;;;5094242;28;20244;-66
2022/09/18 03:22:25;;;;;;;7.68;2.33;;;11.80;99.90;;;;;;5084366;27;20649;-65
2022/09/18 03:24:50;;;;;;;3.10;1.90;;;11.80;99.90;;;;;;5113700;27;20213;-66
2022/09/18 03:27:17;;;;;;;3.75;1.83;;;11.90;99.90;;;;;;5101561;27;20188;-66
2022/09/18 03:29:44;;;;;;;2.78;2.10;;;11.90;99.90;;;;;;5087055;28;20298;-66
2022/09/18 03:32:10;;;;;;;2.15;1.55;;;11.90;99.90;;;;;;5112285;27;20251;-66
2022/09/18 03:34:37;;;;;;;4.72;2.22;;;12.00;99.90;;;;;;5085001;28;20184;-65
2022/09/18 03:37:02;;;;;;;2.25;2.00;;;12.10;99.90;;;;;;5106053;27;20655;-66
2022/09/18 03:39:28;;;;;;;2.15;1.95;;;12.10;99.90;;;;;;5106165;28;20191;-66
2022/09/18 03:41:54;;;;;;;4.05;2.20;;;12.10;99.90;;;;;;5095294;28;20184;-66
2022/09/18 03:44:19;;;;;;;6.43;1.98;;;12.10;99.90;;;;;;5081460;28;20176;-66
2022/09/18 03:46:45;;;;;;;3.17;2.17;;;12.20;99.90;;;;;;5070975;28;20223;-66
2022/09/18 03:49:11;;;;;;;6.45;2.08;;;12.20;99.90;;;;;;5061859;28;20188;-66
2022/09/18 03:51:36;;;;;;;2.55;2.33;;;12.20;99.90;;;;;;5089306;28;20223;-66
2022/09/18 03:54:02;;;;;;;2.47;2.17;;;12.30;99.90;;;;;;5058866;28;20210;-66
2022/09/18 03:56:28;;;;;;;2.20;2.00;;;12.30;99.90;;;;;;5094364;28;20195;-65
2022/09/18 03:58:53;;;;;;;6.80;3.13;;;12.20;99.90;;;;;;5092059;27;20215;-65
2022/09/18 04:01:19;;;;;;;2.85;1.80;;;12.00;99.90;;;;;;5103381;28;20207;-65
2022/09/18 04:03:45;;;;;;;9.23;2.65;;;11.80;99.90;;;;;;5097477;28;20186;-65
2022/09/18 04:06:11;;;;;;;2.15;1.95;;;11.70;99.90;;;;;;5105689;28;20254;-65
2022/09/18 04:08:37;;;;;;;4.43;1.90;;;11.80;99.90;;;;;;5075783;28;20177;-65
2022/09/18 04:11:04;;;;;;;2.55;2.30;;;11.80;99.90;;;;;;5067849;28;20295;-66
2022/09/18 04:13:30;;;;;;;3.22;2.70;;;11.80;99.90;;;;;;5106111;28;20214;-66
2022/09/18 04:15:56;;;;;;;3.22;2.20;;;11.90;99.90;;;;;;5094563;28;20245;-66
2022/09/18 04:18:22;;;;;;;2.85;2.65;;;12.00;99.90;;;;;;5113395;28;20175;-66
2022/09/18 04:20:47;;;;;;;2.10;1.90;;;12.00;99.90;;;;;;5076176;28;20601;-66
2022/09/18 04:23:13;;;;;;;3.22;2.80;;;12.00;99.90;;;;;;5094171;28;20179;-66
2022/09/18 04:25:42;;;;;;;2.65;1.88;;;12.00;99.90;;;;;;5089468;28;20192;-66
2022/09/18 04:28:09;;;;;;;1.77;1.65;;;12.00;99.90;;;;;;5075638;28;20184;-66
2022/09/18 04:30:35;;;;;;;5.88;1.73;;;12.00;99.90;;;;;;5066304;28;20211;-66
2022/09/18 04:33:01;;;;;;;2.03;1.88;;;12.00;99.90;;;;;;5104566;28;20193;-66
2022/09/18 04:35:27;;;;;;;6.65;1.75;;;11.90;99.90;;;;;;5093888;28;20187;-65
2022/09/18 04:37:53;;;;;;;7.85;1.92;;;12.00;99.90;;;;;;5073487;28;20630;-66
2022/09/18 04:40:19;;;;;;;3.17;2.13;;;12.10;99.90;;;;;;5094443;28;20206;-66
2022/09/18 04:42:45;;;;;;;3.40;2.00;;;12.20;99.90;;;;;;5094954;28;20188;-66
2022/09/18 04:45:10;;;;;;;2.10;1.90;;;12.20;99.90;;;;;;5102614;28;20192;-66
2022/09/18 04:47:36;;;;;;;2.47;2.22;;;12.20;99.90;;;;;;5096830;28;20183;-65
2022/09/18 04:50:03;;;;;;;2.30;2.03;;;12.20;99.90;;;;;;5097481;28;20208;-65
2022/09/18 04:52:29;;;;;;;2.20;2.05;;;12.10;99.90;;;;;;5095458;28;20184;-67
2022/09/18 04:54:54;;;;;;;4.63;2.08;;;12.00;99.90;;;;;;5110696;27;20184;-66
2022/09/18 04:57:20;;;;;;;2.60;2.38;;;12.00;99.90;;;;;;5106890;28;20183;-65
2022/09/18 04:59:46;;;;;;;3.08;2.38;;;12.00;99.90;;;;;;5078036;28;20192;-66
2022/09/18 05:02:11;;;;;;;3.33;2.60;;;11.90;99.90;;;;;;5107428;27;20248;-66
2022/09/18 05:04:37;;;;;;;2.05;1.95;;;11.90;99.90;;;;;;5110922;28;20192;-66
2022/09/18 05:07:04;;;;;;;2.72;2.53;;;11.80;99.90;;;;;;5098183;28;20188;-66
2022/09/18 05:09:30;;;;;;;2.50;2.30;;;11.90;99.90;;;;;;5109565;28;20219;-66
2022/09/18 05:11:56;;;;;;;2.67;2.47;;;12.00;99.90;;;;;;5082267;28;20189;-66
2022/09/18 05:14:22;;;;;;;3.28;2.97;;;12.00;99.90;;;;;;5115674;27;20180;-64
2022/09/18 05:16:48;;;;;;;3.08;2.65;;;12.00;99.90;;;;;;5109645;27;20185;-65
2022/09/18 05:19:14;;;;;;;2.72;2.53;;;12.00;99.90;;;;;;5113951;27;20184;-65
2022/09/18 05:21:39;;;;;;;3.42;2.78;;;12.00;99.90;;;;;;5112909;27;20590;-65
2022/09/18 05:24:05;;;;;;;9.55;2.55;;;12.10;99.90;;;;;;5095621;28;20187;-67
2022/09/18 05:26:30;;;;;;;2.28;2.08;;;12.00;99.90;;;;;;5110534;27;20218;-64
2022/09/18 05:28:56;;;;;;;3.25;2.00;;;12.00;99.90;;;;;;5080132;28;20185;-65
2022/09/18 05:31:22;;;;;;;2.88;2.58;;;11.90;99.90;;;;;;5110481;27;20234;-64
2022/09/18 05:33:48;;;;;;;3.75;1.98;;;11.90;99.90;;;;;;5083061;28;20196;-65
2022/09/18 05:36:13;;;;;;;2.38;2.28;;;12.00;99.90;;;;;;5086617;28;20267;-65
2022/09/18 05:38:39;;;;;;;2.88;2.47;;;12.00;99.90;;;;;;5092953;28;20189;-65
2022/09/18 05:41:05;;;;;;;2.60;2.40;;;12.00;99.90;;;;;;5088959;28;20525;-65
2022/09/18 05:43:31;;;;;;;2.20;2.10;;;12.10;99.90;;;;;;5108898;27;20831;-65
2022/09/18 05:45:59;;;;;;;2.67;2.03;;;12.10;99.90;;;;;;5080802;27;20347;-65
2022/09/18 05:48:24;;;;;;;6.90;4.88;;;12.00;99.90;;;;;;5097429;27;20268;-65
2022/09/18 05:50:50;;;;;;;2.33;2.13;;;11.90;99.90;;;;;;5089465;28;20635;-65
2022/09/18 05:53:18;;;;;;;3.15;2.95;;;12.00;99.90;;;;;;5103552;27;20238;-66
2022/09/18 05:55:44;;;;;;;3.25;1.85;;;12.10;99.90;;;;;;5088915;28;20188;-66
2022/09/18 05:58:14;;;;;;;7.68;2.40;;;12.10;99.90;;;;;;5097239;28;20191;-66
2022/09/18 06:00:43;;;;;;;2.25;2.00;;;12.20;99.90;;;;;;5099836;28;20192;-67
2022/09/18 06:03:11;;;;;;;3.88;1.80;;;12.30;99.90;;;;;;5086966;28;20188;-66
2022/09/18 06:05:37;;;;;;;1.92;1.83;;;12.20;99.90;;;;;;5085129;28;20184;-66
2022/09/18 06:08:05;;;;;;;2.47;2.05;;;12.20;99.90;;;;;;5115368;27;20266;-66
2022/09/18 06:10:32;;;;;;;2.38;2.15;;;12.20;99.90;;;;;;5110052;28;20222;-65
2022/09/18 06:13:09;;;;;;;1.70;1.60;;;12.30;99.90;;;;;;5095592;28;20227;-66
2022/09/18 06:15:35;;;;;;;3.28;2.42;;;12.30;99.90;;;;;;5089376;28;20208;-66
2022/09/18 06:18:02;;;;;;;3.92;2.97;;;12.30;99.90;;;;;;5109809;28;20185;-66
2022/09/18 06:20:28;;;;;;;1.77;1.67;;;12.40;99.90;;;;;;5076197;28;20191;-66
2022/09/18 06:22:59;;;;;;;4.80;2.70;;;12.50;99.90;;;;;;5096631;28;20644;-66
2022/09/18 06:25:25;;;;;;;3.13;1.63;;;12.50;99.90;;;;;;5097811;28;20752;-66
2022/09/18 06:27:57;;;;;;;2.50;2.35;;;12.60;99.90;;;;;;5098884;28;20597;-66
2022/09/18 06:30:24;;;;;;;1.80;1.70;;;12.60;99.90;;;;;;5109874;27;20204;-66
2022/09/18 06:32:50;;;;;;;3.30;2.00;;;12.60;99.90;;;;;;5093440;28;20579;-66
2022/09/18 06:35:16;;;;;;;2.13;2.03;;;12.60;99.90;;;;;;5081742;28;20210;-67
2022/09/18 06:37:42;;;;;;;1.75;1.65;;;12.70;99.90;;;;;;5106495;27;20287;-66
2022/09/18 06:40:08;;;;;;;5.35;1.98;;;12.70;99.90;;;;;;5096538;28;20188;-66
2022/09/18 06:42:33;;;;;;;3.25;2.13;;;12.70;99.90;;;;;;5110227;27;20234;-66
2022/09/18 06:44:59;;;;;;;7.78;2.03;;;12.80;99.90;;;;;;5108408;28;20187;-66
2022/09/18 06:47:24;;;;;;;1.73;1.55;;;12.90;99.90;;;;;;5087256;28;20191;-66
2022/09/18 06:49:50;;;;;;;2.25;1.77;;;13.00;99.90;;;;;;5112633;27;20212;-66
2022/09/18 06:52:16;;;;;;;1.50;1.40;;;13.20;99.90;;;;;;5068158;28;20188;-66
2022/09/18 06:54:41;;;;;;;2.50;1.35;;;13.30;99.90;;;;;;5066442;27;20207;-66
2022/09/18 06:57:07;;;;;;;4.20;1.60;;;13.40;99.90;;;;;;5079054;28;20226;-66
2022/09/18 06:59:33;;;;;;;2.63;1.60;;;13.50;99.90;;;;;;5079442;28;20217;-64
2022/09/18 07:01:59;;;;;;;1.67;1.55;;;13.60;99.90;;;;;;5101252;27;20670;-64
2022/09/18 07:04:24;;;;;;;4.88;1.85;;;13.70;99.90;;;;;;5107268;27;20200;-64
2022/09/18 07:06:50;;;;;;;4.80;2.03;;;13.80;99.90;;;;;;5076751;27;20188;-64
2022/09/18 07:09:16;;;;;;;3.38;1.85;;;13.80;99.90;;;;;;5080565;28;20203;-64
2022/09/18 07:11:41;;;;;;;1.95;1.85;;;13.90;99.90;;;;;;5084613;28;20223;-65
2022/09/18 07:14:07;;;;;;;4.55;2.22;;;14.00;99.90;;;;;;5111422;28;20241;-65
2022/09/18 07:16:34;;;;;;;1.60;1.35;;;14.00;99.90;;;;;;5095990;28;20260;-65
2022/09/18 07:19:00;;;;;;;1.75;1.63;;;14.00;99.90;;;;;;5095234;28;20184;-64
2022/09/18 07:21:26;;;;;;;2.22;1.48;;;14.20;99.90;;;;;;5114077;27;20632;-66
2022/09/18 07:23:52;;;;;;;5.35;2.10;;;14.20;99.90;;;;;;5111223;27;20188;-64
2022/09/18 07:26:18;;;;;;;2.88;2.00;;;14.20;99.90;;;;;;5117319;27;20595;-66
2022/09/18 07:28:44;;;;;;;1.42;1.30;;;14.20;99.90;;;;;;5101269;27;20176;-66
2022/09/18 07:31:10;;;;;;;1.83;1.73;;;14.30;99.90;;;;;;5096421;27;20200;-66
2022/09/18 07:33:36;;;;;;;2.65;1.98;;;14.30;99.90;;;;;;5091502;28;20667;-66
2022/09/18 07:36:03;;;;;;;2.45;1.55;;;14.40;99.90;;;;;;5095101;28;20652;-66
2022/09/18 07:38:29;;;;;;;2.45;1.38;;;14.50;99.90;;;;;;5095335;28;20275;-64
2022/09/18 07:40:55;;;;;;;5.05;2.05;;;14.60;99.90;;;;;;5103362;27;20632;-66
2022/09/18 07:43:20;;;;;;;3.63;1.58;;;14.70;99.90;;;;;;5101392;28;20232;-66
2022/09/18 07:45:46;;;;;;;2.08;1.67;;;14.70;99.90;;;;;;5092856;27;20240;-66
2022/09/18 07:48:12;;;;;;;1.98;1.40;;;14.70;99.90;;;;;;5125879;27;20663;-65
2022/09/18 07:50:38;;;;;;;2.80;1.83;;;14.70;99.90;;;;;;5071271;28;20325;-66
2022/09/18 07:53:06;;;;;;;3.72;1.77;;;14.70;99.90;;;;;;5113200;28;20193;-66
2022/09/18 07:55:35;;;;;;;3.25;1.45;;;14.80;99.90;;;;;;5081876;28;20285;-66
2022/09/18 07:58:03;;;;;;;2.15;1.27;;;14.80;99.90;;;;;;5080909;27;20208;-66
2022/09/18 08:00:33;;;;;;;2.35;1.70;;;14.70;99.90;;;;;;5080929;28;20636;-65
2022/09/18 08:03:07;;;;;;;5.05;1.48;;;14.70;99.90;;;;;;5111664;28;20204;-66
2022/09/18 08:05:33;;;;;;;1.85;1.48;;;14.70;99.90;;;;;;5075576;28;20641;-66
2022/09/18 08:08:11;;;;;;;3.53;1.98;;;14.80;99.90;;;;;;5105955;27;20195;-65
2022/09/18 08:10:38;;;;;;;3.80;1.48;;;14.80;99.90;;;;;;5094644;28;20222;-65
2022/09/18 08:13:04;;;;;;;4.65;1.98;;;14.70;99.90;;;;;;5095377;28;20660;-66
2022/09/18 08:15:31;;;;;;;4.00;2.03;;;14.60;99.90;;;;;;5091939;28;20187;-67
2022/09/18 08:17:57;;;;;;;2.67;1.67;;;14.60;99.90;;;;;;5099934;28;20778;-66
2022/09/18 08:20:23;;;;;;;2.83;2.28;;;14.70;99.90;;;;;;5112924;28;20205;-65
2022/09/18 08:22:49;;;;;;;2.63;1.70;;;14.90;99.90;;;;;;5107269;28;20195;-65
2022/09/18 08:25:16;;;;;;;2.67;1.63;;;15.00;99.90;;;;;;5086824;28;20185;-66
2022/09/18 08:27:42;;;;;;;3.35;1.80;;;15.10;99.90;;;;;;5087897;28;20211;-66
2022/09/18 08:30:10;;;;;;;2.55;1.73;;;15.30;99.90;;;;;;5098125;27;20199;-65
2022/09/18 08:32:39;;;;;;;5.65;2.30;;;15.60;99.90;;;;;;5117338;27;20540;-66
2022/09/18 08:35:05;;;;;;;3.85;1.70;;;15.80;99.90;;;;;;5099658;28;20184;-66
2022/09/18 08:37:32;;;;;;;4.10;1.85;;;16.10;99.90;;;;;;5085515;28;20184;-66
2022/09/18 08:39:57;;;;;;;2.47;2.10;;;16.40;99.90;;;;;;5088787;28;20180;-66
2022/09/18 08:42:59;;;;;;;5.13;1.88;;;16.50;99.90;;;;;;5095278;28;20180;-66
2022/09/18 08:45:31;;;;;;;1.73;1.63;;;16.80;99.90;;;;;;5096293;28;20256;-64
2022/09/18 08:48:10;;;;;;;4.18;1.85;;;17.00;99.90;;;;;;5095452;28;20242;-66
2022/09/18 08:50:40;;;;;;;2.25;2.10;;;17.10;99.90;;;;;;5091711;27;20196;-64
2022/09/18 08:53:19;;;;;;;1.40;1.30;;;17.30;99.90;;;;;;5078968;28;20544;-64
2022/09/18 08:55:47;;;;;;;4.10;1.60;;;17.20;99.90;;;;;;5110887;27;20175;-64
2022/09/18 08:58:18;;;;;;;2.40;1.85;;;17.30;99.90;;;;;;5098063;27;20234;-64
2022/09/18 09:00:47;;;;;;;2.50;1.60;;;17.30;99.90;;;;;;5109762;28;20222;-64
2022/09/18 09:03:40;;;;;;;3.13;2.15;;;17.40;99.90;;;;;;5104662;27;20182;-64
2022/09/18 09:06:14;;;;;;;1.55;1.35;;;17.30;99.90;;;;;;5101705;28;20194;-64
2022/09/18 09:08:46;;;;;;;1.80;1.65;;;17.20;99.90;;;;;;5114485;28;20190;-64
2022/09/18 09:11:29;;;;;;;1.65;1.50;;;17.30;99.90;;;;;;5083986;28;20243;-64
2022/09/18 09:14:20;;;;;;;4.10;2.03;;;17.50;99.90;;;;;;5106492;27;20259;-63
2022/09/18 09:16:59;;;;;;;2.50;1.42;;;17.80;99.90;;;;;;5107487;27;20185;-66
2022/09/18 09:19:25;;;;;;;1.08;1.08;;;18.00;99.90;;;;;;5090348;28;20191;-65
2022/09/18 09:22:35;;;;;;;1.30;1.23;;;18.10;99.90;;;;;;5096283;28;20192;-64
2022/09/18 09:25:13;;;;;;;1.35;1.25;;;18.00;99.90;;;;;;5010953;28;20288;-63
2022/09/18 09:28:02;;;;;;;3.45;2.08;;;18.00;99.90;;;;;;5003341;28;20653;-63
2022/09/18 09:30:32;;;;;;;2.42;2.15;;;18.00;99.90;;;;;;5081622;28;20219;-65
2022/09/18 09:33:03;;;;;;;1.40;1.30;;;18.20;99.90;;;;;;5105434;27;20687;-65
2022/09/18 09:35:35;;;;;;;2.80;1.17;;;18.40;99.90;;;;;;5092848;28;20192;-65
2022/09/18 09:38:36;;;;;;;3.05;1.23;;;18.80;99.90;;;;;;5097376;28;20710;-65
2022/09/18 09:41:12;;;;;;;1.80;1.33;;;18.70;99.90;;;;;;5069968;28;20238;-65
2022/09/18 09:43:55;;;;;;;1.73;1.67;;;18.70;99.90;;;;;;5112058;27;20218;-64
2022/09/18 09:46:42;;;;;;;1.60;1.20;;;18.80;99.90;;;;;;5103240;28;20176;-65
2022/09/18 09:49:17;;;;;;;1.48;1.20;;;18.90;99.90;;;;;;5095493;28;20181;-65
2022/09/18 09:52:01;;;;;;;3.33;1.27;;;19.00;99.90;;;;;;5087311;28;20252;-65
2022/09/18 09:54:27;;;;;;;1.95;1.40;;;19.00;99.90;;;;;;5112199;28;20177;-65
2022/09/18 09:57:18;;;;;;;2.03;1.50;;;19.10;99.90;;;;;;5112699;27;20240;-65
2022/09/18 09:59:51;;;;;;;2.58;1.80;;;19.20;99.90;;;;;;5106525;27;20187;-65
2022/09/18 10:02:39;;;;;;;2.65;1.50;;;19.10;99.90;;;;;;5120251;27;20181;-65
2022/09/18 10:05:34;;;;;;;2.75;1.20;;;19.20;99.90;;;;;;5093038;28;20279;-65
2022/09/18 10:08:29;;;;;;;2.65;1.40;;;19.40;99.90;;;;;;5111188;27;20199;-65
2022/09/18 10:11:01;;;;;;;1.50;1.40;;;19.20;99.90;;;;;;5063504;28;20255;-66
2022/09/18 10:13:35;;;;;;;4.13;1.95;;;19.10;99.90;;;;;;5094354;28;20227;-66
2022/09/18 10:16:17;;;;;;;0.88;0.88;;;18.90;99.90;;;;;;5088951;28;20240;-63
2022/09/18 10:18:45;;;;;;;1.88;1.30;;;18.90;99.90;;;;;;5095935;27;20180;-65
2022/09/18 10:21:22;;;;;;;1.50;1.40;;;18.90;99.90;;;;;;5107592;28;20188;-65
2022/09/18 10:24:08;;;;;;;1.25;1.20;;;19.00;99.90;;;;;;5094176;28;20176;-63
2022/09/18 10:26:46;;;;;;;1.00;1.00;;;19.20;99.90;;;;;;5103967;28;20184;-63
2022/09/18 10:29:12;;;;;;;0.90;0.90;;;19.50;99.90;;;;;;5108340;28;20180;-63
2022/09/18 10:31:50;;;;;;;3.13;1.70;;;19.50;99.90;;;;;;5099657;27;20660;-63
2022/09/18 10:34:42;;;;;;;1.27;1.17;;;19.60;99.90;;;;;;5114244;27;20647;-63
2022/09/18 10:37:29;;;;;;;2.15;1.77;;;19.50;99.90;;;;;;5092717;28;20187;-63
2022/09/18 10:40:00;;;;;;;2.88;1.85;;;19.40;99.90;;;;;;5093957;28;20222;-66
2022/09/18 10:42:28;;;;;;;1.48;1.38;;;19.30;99.90;;;;;;5105384;28;20172;-63
2022/09/18 10:45:01;;;;;;;1.25;1.15;;;19.10;99.90;;;;;;5114101;28;20232;-65
2022/09/18 10:47:29;;;;;;;3.03;1.65;;;19.30;99.90;;;;;;5086627;28;20349;-64
2022/09/18 10:50:10;;;;;;;1.25;1.20;;;19.20;99.90;;;;;;5104387;28;20675;-64
2022/09/18 10:52:47;;;;;;;2.22;1.65;;;19.30;99.90;;;;;;5100627;28;20228;-65
2022/09/18 10:55:15;;;;;;;3.63;2.17;;;19.20;99.90;;;;;;5088996;28;20187;-64
2022/09/18 10:57:42;;;;;;;1.35;1.13;;;19.30;99.90;;;;;;5091201;28;20177;-64
2022/09/18 11:00:11;;;;;;;1.08;1.08;;;19.40;99.90;;;;;;5100143;28;20176;-65
2022/09/18 11:02:40;;;;;;;3.22;1.38;;;19.50;99.90;;;;;;5083052;28;20329;-64
2022/09/18 11:05:19;;;;;;;2.20;1.80;;;19.20;99.90;;;;;;5098821;27;20274;-64
2022/09/18 11:07:50;;;;;;;4.38;2.22;;;19.10;99.90;;;;;;5095224;27;20220;-64
2022/09/18 11:10:18;;;;;;;3.80;1.60;;;18.90;99.90;;;;;;5091569;28;20215;-64
2022/09/18 11:12:53;;;;;;;1.80;1.70;;;18.60;99.90;;;;;;5091680;28;20263;-64
2022/09/18 11:15:21;;;;;;;2.20;2.00;;;18.70;99.90;;;;;;5114689;27;20265;-64
2022/09/18 11:17:52;;;;;;;1.20;1.20;;;18.80;99.90;;;;;;5089457;28;20180;-64
2022/09/18 11:20:29;;;;;;;1.95;1.85;;;19.00;99.90;;;;;;5090987;28;20200;-64
2022/09/18 11:23:13;;;;;;;4.15;1.23;;;19.10;99.90;;;;;;5114134;27;20190;-65
2022/09/18 11:25:40;;;;;;;1.80;1.35;;;19.00;99.90;;;;;;5114193;27;20184;-64
2022/09/18 11:28:21;;;;;;;1.98;1.60;;;19.10;99.90;;;;;;5096226;27;20542;-64
2022/09/18 11:30:57;;;;;;;2.03;1.10;;;19.00;99.90;;;;;;5104614;28;20204;-64
2022/09/18 11:33:52;;;;;;;1.95;1.77;;;18.90;99.90;;;;;;5103954;28;20605;-64
2022/09/18 11:36:39;;;;;;;1.30;1.20;;;19.20;99.90;;;;;;5081944;28;20229;-64
2022/09/18 11:39:13;;;;;;;3.50;1.35;;;19.50;99.90;;;;;;5101937;27;20190;-64
2022/09/18 11:41:40;;;;;;;2.05;0.88;;;19.60;99.90;;;;;;5094372;28;20180;-64
2022/09/18 11:44:17;;;;;;;2.40;1.40;;;19.40;99.90;;;;;;5078016;28;20202;-64
2022/09/18 11:47:01;;;;;;;0.77;0.77;;;19.40;99.90;;;;;;5094811;28;20264;-63
2022/09/18 11:49:35;;;;;;;0.90;0.90;;;19.40;99.90;;;;;;5103606;28;20645;-64
2022/09/18 11:52:08;;;;;;;3.15;0.95;;;19.10;99.90;;;;;;5113966;28;20187;-64
2022/09/18 11:54:54;;;;;;;1.45;0.93;;;19.20;99.90;;;;;;5090173;28;20187;-65
2022/09/18 11:57:36;;;;;;;0.80;0.80;;;19.40;99.90;;;;;;5105906;28;20199;-64
2022/09/18 12:00:25;;;;;;;0.80;0.80;;;19.80;99.90;;;;;;5078888;28;20180;-65
2022/09/18 12:03:26;;;;;;;0.63;0.63;;;19.60;99.90;;;;;;5100716;28;20222;-64
2022/09/18 12:05:56;;;;;;;1.55;1.45;;;19.30;99.90;;;;;;5111099;28;20196;-64
2022/09/18 12:08:43;;;;;;;1.75;1.00;;;19.10;99.90;;;;;;5097576;27;20257;-64
2022/09/18 12:11:36;;;;;;;1.50;1.15;;;19.20;99.90;;;;;;5086910;28;20207;-64
2022/09/18 12:14:23;;;;;;;0.50;0.50;;;19.50;99.90;;;;;;5110860;28;20726;-64
2022/09/18 12:16:57;;;;;;;1.90;0.63;;;19.60;99.90;;;;;;5094878;28;20175;-64
2022/09/18 12:19:32;;;;;;;1.60;1.50;;;19.60;99.90;;;;;;5082895;28;20179;-63
2022/09/18 12:22:13;;;;;;;0.70;0.70;;;19.20;99.90;;;;;;5094327;28;20180;-63
2022/09/18 12:24:39;;;;;;;1.35;0.55;;;19.10;99.90;;;;;;5112915;28;20278;-65
2022/09/18 12:27:21;;;;;;;0.68;0.68;;;18.80;99.90;;;;;;5102826;28;20200;-63
2022/09/18 12:29:47;;;;;;;0.73;0.73;;;18.60;99.90;;;;;;5103961;28;20204;-63
2022/09/18 12:32:38;;;;;;;1.10;0.65;;;18.50;99.90;;;;;;5113076;28;20245;-63
2022/09/18 12:35:20;;;;;;;4.60;1.20;;;18.30;99.90;;;;;;5100701;28;20190;-66
2022/09/18 12:38:24;;;;;;;1.08;1.08;;;18.50;99.90;;;;;;5100167;28;20188;-63
2022/09/18 12:41:01;;;;;;;1.27;0.65;;;18.50;99.90;;;;;;5029976;28;20706;-65
2022/09/18 12:43:59;;;;;;;1.73;0.63;;;18.80;99.90;;;;;;5030337;28;20186;-63
2022/09/18 12:46:43;;;;;;;1.25;0.95;;;19.10;99.90;;;;;;5062661;28;20184;-64
2022/09/18 12:49:30;;;;;;;2.28;0.63;;;19.10;99.90;;;;;;5104051;28;20272;-64
2022/09/18 12:52:21;;;;;;;3.55;0.60;;;19.10;99.90;;;;;;5104917;28;20679;-63
2022/09/18 12:55:20;;;;;;;1.17;0.90;;;18.90;99.90;;;;;;5101570;28;20660;-63
2022/09/18 12:58:24;;;;;;;0.93;0.93;;;18.70;99.90;;;;;;5085467;28;20716;-63
2022/09/18 13:00:51;;;;;;;2.85;0.68;;;18.40;99.90;;;;;;5111570;28;20176;-63
2022/09/18 13:03:24;;;;;;;2.10;0.65;;;18.40;99.90;;;;;;5093938;28;20297;-64
2022/09/18 13:05:59;;;;;;;2.88;0.80;;;18.40;99.90;;;;;;5108327;28;20233;-64
2022/09/18 13:08:44;;;;;;;1.25;1.13;;;18.70;99.90;;;;;;5105742;28;20286;-63
2022/09/18 13:11:30;;;;;;;0.88;0.50;;;18.80;99.90;;;;;;5073798;28;20577;-63
2022/09/18 13:14:24;;;;;;;0.60;0.50;;;18.80;99.90;;;;;;5107506;27;20691;-63
2022/09/18 13:16:56;;;;;;;3.00;0.50;;;18.40;99.90;;;;;;5101756;27;20189;-63